Time;durP1;ratioP1;P1;durP2;ratioP2;P2;SDS_P1;SDS_P2;PMS_P1;PMS_P2;Temp;Humidity;BMP_temperature;BMP_pressure;BME280_temperature;BME280_humidity;BME280_pressure;Samples;Min_cycle;Max_cycle;Signal;HPM_P1;HPM_P2
2022/08/19 00:00:25;;;;;;;24.27;17.67;;;19.10;99.90;;;;;;5115705;28;20413;-87
2022/08/19 00:03:12;;;;;;;24.42;17.70;;;19.10;99.90;;;;;;5109770;28;20047;-86
2022/08/19 00:06:00;;;;;;;22.67;17.63;;;19.10;99.90;;;;;;5110109;27;20046;-85
2022/08/19 00:08:47;;;;;;;23.45;17.92;;;19.10;99.90;;;;;;5120723;27;20109;-87
2022/08/19 00:11:36;;;;;;;21.17;18.08;;;19.10;99.90;;;;;;5117560;28;20048;-86
2022/08/19 00:14:26;;;;;;;27.77;17.73;;;19.10;99.90;;;;;;5100303;28;20048;-85
2022/08/19 00:17:13;;;;;;;25.58;17.65;;;19.20;99.90;;;;;;5118387;27;20047;-85
2022/08/19 00:20:00;;;;;;;25.38;17.65;;;19.10;99.90;;;;;;5119353;28;20040;-84
2022/08/19 00:22:54;;;;;;;19.95;16.63;;;19.10;99.90;;;;;;5112463;28;20043;-86
2022/08/19 00:25:44;;;;;;;25.33;16.70;;;19.10;99.90;;;;;;5108723;28;20071;-86
2022/08/19 00:28:35;;;;;;;23.27;18.25;;;19.10;99.90;;;;;;5104271;28;20051;-85
2022/08/19 00:31:22;;;;;;;24.73;17.33;;;19.00;99.90;;;;;;5119304;27;20374;-86
2022/08/19 00:34:11;;;;;;;23.48;17.92;;;19.00;99.90;;;;;;5128066;27;20052;-87
2022/08/19 00:36:59;;;;;;;26.38;18.70;;;19.00;99.90;;;;;;5103267;28;20044;-86
2022/08/19 00:39:46;;;;;;;27.08;19.35;;;19.00;99.90;;;;;;5101629;28;20055;-87
2022/08/19 00:42:35;;;;;;;25.05;18.92;;;19.00;99.90;;;;;;5111469;27;20048;-86
2022/08/19 00:45:25;;;;;;;27.88;20.55;;;19.00;99.90;;;;;;5115945;28;20075;-85
2022/08/19 00:48:13;;;;;;;28.75;20.77;;;18.90;99.90;;;;;;5115353;27;20044;-85
2022/08/19 00:51:01;;;;;;;28.08;20.50;;;18.90;99.90;;;;;;5138837;27;20038;-86
2022/08/19 00:53:51;;;;;;;29.42;21.67;;;18.80;99.90;;;;;;5107858;28;20047;-84
2022/08/19 00:56:41;;;;;;;30.88;21.52;;;18.70;99.90;;;;;;5131758;28;20032;-82
2022/08/19 00:59:29;;;;;;;32.05;22.45;;;18.50;91.20;;;;;;5102648;28;20067;-85
2022/08/19 01:02:36;;;;;;;30.08;22.48;;;18.40;1.00;;;;;;5114775;28;20470;-85
2022/08/19 01:05:27;;;;;;;30.23;22.65;;;18.30;99.90;;;;;;5139485;27;20043;-86
2022/08/19 01:08:16;;;;;;;31.95;23.38;;;18.20;99.90;;;;;;5130298;28;20092;-85
2022/08/19 01:11:04;;;;;;;32.22;24.75;;;18.20;99.90;;;;;;5124038;28;20047;-85
2022/08/19 01:13:53;;;;;;;34.65;23.83;;;18.10;99.90;;;;;;5105943;27;20050;-86
2022/08/19 01:16:46;;;;;;;36.60;25.10;;;18.10;1.00;;;;;;5107167;27;20054;-86
2022/08/19 01:19:41;;;;;;;33.45;23.77;;;18.10;1.00;;;;;;5111687;28;20047;-85
2022/08/19 01:22:47;;;;;;;32.70;24.25;;;18.10;1.00;;;;;;5108379;28;20066;-85
2022/08/19 01:25:43;;;;;;;35.47;24.67;;;18.10;1.00;;;;;;5106225;27;20047;-86
2022/08/19 01:28:31;;;;;;;31.58;22.98;;;18.10;1.00;;;;;;5120562;27;20123;-85
2022/08/19 01:31:23;;;;;;;32.42;24.15;;;18.10;99.90;;;;;;5111351;27;20069;-85
2022/08/19 01:34:13;;;;;;;34.58;24.17;;;18.10;1.00;;;;;;5115194;27;20328;-85
2022/08/19 01:37:07;;;;;;;37.15;25.23;;;18.10;43.10;;;;;;5103847;28;20062;-85
2022/08/19 01:39:59;;;;;;;35.08;24.45;;;18.10;1.00;;;;;;5105680;28;20043;-86
2022/08/19 01:42:50;;;;;;;34.65;25.45;;;18.10;99.90;;;;;;5113167;27;20035;-85
2022/08/19 01:45:39;;;;;;;37.78;25.27;;;18.00;1.00;;;;;;5130999;27;20050;-86
2022/08/19 01:48:29;;;;;;;38.35;25.65;;;18.00;99.90;;;;;;5116852;28;20047;-86
2022/08/19 01:51:16;;;;;;;36.83;25.15;;;18.00;99.90;;;;;;5099970;28;20101;-86
2022/08/19 01:54:04;;;;;;;34.83;24.58;;;18.00;99.90;;;;;;5115862;27;20103;-85
2022/08/19 01:57:05;;;;;;;35.42;25.45;;;18.00;99.90;;;;;;5118857;27;20127;-86
2022/08/19 01:59:53;;;;;;;37.50;25.42;;;17.90;99.90;;;;;;5115629;27;20040;-87
2022/08/19 02:02:40;;;;;;;32.92;24.65;;;17.90;1.00;;;;;;5123442;27;20058;-86
2022/08/19 02:05:30;;;;;;;32.83;24.00;;;17.90;1.00;;;;;;5104383;27;20036;-85
2022/08/19 02:08:17;;;;;;;32.33;23.77;;;17.90;1.00;;;;;;5110816;28;20445;-83
2022/08/19 02:11:06;;;;;;;32.47;24.98;;;17.90;99.90;;;;;;5125581;27;20043;-84
2022/08/19 02:13:55;;;;;;;33.38;23.52;;;17.90;99.90;;;;;;5118890;27;20126;-87
2022/08/19 02:16:42;;;;;;;35.42;24.77;;;17.80;99.90;;;;;;5116334;28;20044;-85
2022/08/19 02:19:32;;;;;;;32.03;24.52;;;17.80;16.20;;;;;;5107524;28;20581;-85
2022/08/19 02:22:25;;;;;;;34.10;24.20;;;17.80;26.60;;;;;;5086388;28;20047;-85
2022/08/19 02:25:13;;;;;;;34.67;25.95;;;17.90;1.00;;;;;;5113630;28;20062;-85
2022/08/19 02:28:01;;;;;;;35.13;25.50;;;17.90;99.90;;;;;;5112548;27;20462;-85
2022/08/19 02:30:48;;;;;;;32.13;24.17;;;17.80;99.90;;;;;;5103723;27;20044;-85
2022/08/19 02:33:35;;;;;;;33.60;25.13;;;17.80;1.00;;;;;;5111009;28;20457;-87
2022/08/19 02:36:27;;;;;;;34.25;25.35;;;17.80;1.00;;;;;;5099718;28;20511;-87
2022/08/19 02:39:16;;;;;;;39.13;26.02;;;17.80;99.90;;;;;;5102990;28;20443;-87
2022/08/19 02:42:03;;;;;;;33.63;24.38;;;17.80;99.90;;;;;;5104587;28;20043;-86
2022/08/19 02:44:51;;;;;;;33.78;24.45;;;17.80;99.90;;;;;;5109089;28;20039;-85
2022/08/19 02:47:39;;;;;;;36.75;25.45;;;17.80;99.90;;;;;;5097878;28;20104;-85
2022/08/19 02:50:26;;;;;;;32.97;24.58;;;17.80;1.00;;;;;;5106328;28;20112;-85
2022/08/19 02:53:13;;;;;;;37.90;25.90;;;17.80;99.90;;;;;;5108379;28;20051;-86
2022/08/19 02:56:06;;;;;;;36.35;26.15;;;17.80;99.90;;;;;;5107840;28;20059;-85
2022/08/19 02:58:54;;;;;;;35.03;26.20;;;17.80;99.90;;;;;;5096846;27;20713;-86
2022/08/19 03:01:42;;;;;;;38.88;26.38;;;17.80;99.90;;;;;;5108053;28;20043;-86
2022/08/19 03:04:32;;;;;;;34.08;26.23;;;17.80;99.90;;;;;;5110541;28;20039;-89
2022/08/19 03:07:19;;;;;;;35.22;25.20;;;17.90;99.90;;;;;;5127622;27;20113;-89
2022/08/19 03:10:06;;;;;;;39.08;26.88;;;17.80;99.90;;;;;;5098556;28;20075;-88
2022/08/19 03:12:56;;;;;;;36.88;26.35;;;17.90;1.00;;;;;;5112579;28;20104;-89
2022/08/19 03:15:45;;;;;;;36.08;25.92;;;17.90;1.00;;;;;;5121155;28;20100;-89
2022/08/19 03:18:35;;;;;;;37.28;27.15;;;17.90;1.00;;;;;;5118486;27;20044;-88
2022/08/19 03:21:33;;;;;;;33.95;25.58;;;17.90;19.90;;;;;;5120176;28;20136;-90
2022/08/19 03:24:20;;;;;;;38.95;27.45;;;17.80;20.40;;;;;;5122399;27;20044;-88
2022/08/19 03:27:07;;;;;;;35.28;27.02;;;17.80;1.00;;;;;;5113515;28;20139;-88
2022/08/19 03:29:57;;;;;;;36.08;25.95;;;17.80;1.00;;;;;;5116821;28;20051;-87
2022/08/19 03:32:47;;;;;;;33.78;25.45;;;17.80;1.00;;;;;;5119316;28;20044;-88
2022/08/19 03:35:44;;;;;;;41.38;28.45;;;17.80;16.60;;;;;;5112977;28;20051;-85
2022/08/19 03:38:34;;;;;;;36.72;27.42;;;17.80;56.60;;;;;;5096111;28;20051;-89
2022/08/19 03:41:25;;;;;;;34.58;26.63;;;17.80;99.90;;;;;;5112101;28;20101;-89
2022/08/19 03:44:32;;;;;;;39.05;28.25;;;17.70;99.90;;;;;;5112917;28;20051;-90
2022/08/19 03:47:19;;;;;;;36.40;27.65;;;17.70;99.90;;;;;;5113292;28;20043;-88
2022/08/19 03:50:08;;;;;;;41.22;29.17;;;17.70;99.90;;;;;;5096742;28;20483;-88
2022/08/19 03:52:55;;;;;;;38.10;29.30;;;17.70;99.90;;;;;;5107874;28;20098;-89
2022/08/19 03:55:42;;;;;;;46.35;33.58;;;17.60;1.00;;;;;;5104168;28;20051;-86
2022/08/19 03:58:30;;;;;;;43.45;31.55;;;17.70;99.90;;;;;;5107802;28;20125;-89
2022/08/19 04:01:23;;;;;;;51.78;32.50;;;17.70;99.90;;;;;;5089838;28;20051;-91
2022/08/19 04:04:21;;;;;;;41.65;30.33;;;17.70;99.90;;;;;;5099593;28;20044;-89
2022/08/19 04:07:09;;;;;;;46.75;33.17;;;17.60;1.00;;;;;;5100440;28;20070;-88
2022/08/19 04:09:56;;;;;;;47.83;32.83;;;17.70;1.00;;;;;;5129398;28;20105;-87
2022/08/19 04:12:43;;;;;;;45.58;33.85;;;17.70;99.90;;;;;;5100837;28;20124;-88
2022/08/19 04:15:46;;;;;;;43.45;32.67;;;17.80;99.90;;;;;;5108991;28;20324;-86
2022/08/19 04:18:36;;;;;;;45.13;33.67;;;17.80;99.90;;;;;;5101338;28;20389;-90
2022/08/19 04:21:26;;;;;;;44.60;33.08;;;17.80;59.60;;;;;;5112264;28;20462;-88
2022/08/19 04:24:14;;;;;;;45.15;34.10;;;17.80;15.10;;;;;;5115136;28;20379;-87
2022/08/19 04:27:02;;;;;;;45.45;33.58;;;17.80;97.60;;;;;;5107118;28;20043;-90
2022/08/19 04:29:49;;;;;;;46.45;33.67;;;17.70;99.90;;;;;;5112830;28;20051;-87
2022/08/19 04:32:41;;;;;;;45.97;33.17;;;17.80;99.90;;;;;;5105841;28;20062;-90
2022/08/19 04:35:28;;;;;;;44.00;33.05;;;17.70;99.90;;;;;;5116409;28;20044;-87
2022/08/19 04:38:23;;;;;;;46.90;32.88;;;17.70;99.90;;;;;;5109249;28;20075;-88
2022/08/19 04:44:20;;;;;;;48.83;34.30;;;17.70;99.90;;;;;;5108666;28;20100;-89
2022/08/19 04:47:07;;;;;;;47.75;34.13;;;17.70;99.90;;;;;;5114860;28;20043;-87
2022/08/19 04:49:57;;;;;;;46.53;33.40;;;17.70;99.90;;;;;;5114978;27;20053;-86
2022/08/19 04:52:45;;;;;;;45.38;32.42;;;17.70;99.90;;;;;;5108408;27;20063;-89
2022/08/19 04:55:32;;;;;;;49.10;34.83;;;17.80;99.90;;;;;;5115334;27;20044;-88
2022/08/19 04:58:26;;;;;;;47.30;34.28;;;17.80;99.90;;;;;;5115578;27;20132;-86
2022/08/19 05:01:17;;;;;;;44.33;33.08;;;17.80;99.90;;;;;;5102355;28;20050;-87
2022/08/19 05:04:06;;;;;;;47.10;34.22;;;17.90;99.90;;;;;;5113015;27;20085;-89
2022/08/19 05:06:54;;;;;;;48.83;33.83;;;17.90;99.90;;;;;;5104254;28;20043;-88
2022/08/19 05:09:49;;;;;;;46.30;34.45;;;17.90;99.90;;;;;;5104140;27;20044;-86
2022/08/19 05:12:45;;;;;;;45.35;32.78;;;18.00;1.00;;;;;;5118585;28;20124;-86
2022/08/19 05:15:32;;;;;;;44.13;33.13;;;18.00;1.00;;;;;;5107225;27;20083;-86
2022/08/19 05:24:38;;;;;;;43.42;32.00;;;18.10;1.00;;;;;;5104051;27;20126;-85
2022/08/19 05:27:46;;;;;;;43.97;33.63;;;18.10;1.00;;;;;;5120083;27;20047;-87
2022/08/19 05:30:36;;;;;;;43.97;32.30;;;18.10;1.00;;;;;;5128104;27;20062;-88
2022/08/19 05:33:36;;;;;;;49.85;34.92;;;18.10;99.90;;;;;;5117170;27;20140;-88
2022/08/19 05:36:23;;;;;;;45.17;32.42;;;18.10;99.90;;;;;;5123282;27;20044;-87
2022/08/19 05:39:15;;;;;;;45.53;33.45;;;18.10;99.90;;;;;;5116414;27;20063;-88
2022/08/19 05:42:08;;;;;;;46.20;33.13;;;18.10;99.90;;;;;;5112350;28;20043;-88
2022/08/19 05:44:55;;;;;;;49.22;34.33;;;18.10;99.90;;;;;;5117041;27;20040;-88
2022/08/19 05:47:42;;;;;;;46.15;33.78;;;18.10;99.90;;;;;;5089674;27;20113;-88
2022/08/19 05:50:30;;;;;;;45.30;32.92;;;18.10;99.90;;;;;;5116836;27;20067;-88
2022/08/19 05:53:20;;;;;;;42.20;30.77;;;18.10;99.90;;;;;;5117799;27;20397;-87
2022/08/19 05:56:12;;;;;;;43.78;31.45;;;18.20;99.90;;;;;;5114826;27;20053;-88
2022/08/19 05:58:59;;;;;;;42.75;31.95;;;18.20;99.90;;;;;;5115572;28;20075;-87
2022/08/19 06:01:51;;;;;;;41.65;30.92;;;18.20;99.90;;;;;;5108776;28;20047;-90
2022/08/19 06:04:42;;;;;;;48.70;32.90;;;18.30;99.90;;;;;;5116076;27;20100;-89
2022/08/19 06:07:29;;;;;;;45.30;31.85;;;18.30;99.90;;;;;;5113948;28;20082;-86
2022/08/19 06:10:17;;;;;;;41.92;31.45;;;18.30;99.90;;;;;;5110744;27;20047;-88
2022/08/19 06:13:05;;;;;;;43.33;31.58;;;18.30;99.90;;;;;;5122778;27;20450;-88
2022/08/19 06:15:52;;;;;;;41.92;31.63;;;18.30;99.90;;;;;;5113155;27;20036;-86
2022/08/19 06:18:39;;;;;;;39.22;30.45;;;18.30;99.90;;;;;;5115013;28;20054;-88
2022/08/19 06:21:30;;;;;;;42.13;31.83;;;18.40;99.90;;;;;;5099697;27;20125;-87
2022/08/19 06:24:23;;;;;;;45.92;32.67;;;18.40;91.70;;;;;;5108251;28;20044;-86
2022/08/19 06:27:10;;;;;;;46.05;32.58;;;18.40;40.50;;;;;;5097437;28;20052;-89
2022/08/19 06:29:59;;;;;;;42.38;31.17;;;18.40;17.70;;;;;;5104773;28;20462;-86
2022/08/19 06:32:49;;;;;;;46.65;31.50;;;18.40;9.30;;;;;;5098783;28;20094;-87
2022/08/19 06:35:41;;;;;;;38.08;30.02;;;18.50;1.00;;;;;;5110440;28;20059;-87
2022/08/19 06:38:28;;;;;;;42.80;31.10;;;18.50;1.00;;;;;;5107467;28;20367;-85
2022/08/19 06:41:16;;;;;;;44.38;31.70;;;18.60;1.00;;;;;;5112799;28;20047;-87
2022/08/19 06:44:03;;;;;;;41.67;31.65;;;18.60;1.00;;;;;;5108356;28;20044;-90
2022/08/19 06:46:51;;;;;;;38.55;30.27;;;18.60;1.00;;;;;;5112792;27;20043;-86
2022/08/19 06:49:43;;;;;;;39.58;29.02;;;18.60;1.00;;;;;;5111246;27;20048;-90
2022/08/19 06:52:33;;;;;;;37.70;28.67;;;18.70;1.00;;;;;;5099956;28;20062;-86
2022/08/19 06:55:23;;;;;;;41.35;30.92;;;18.70;1.00;;;;;;5117815;28;20044;-88
2022/08/19 06:58:10;;;;;;;37.15;29.25;;;18.80;1.00;;;;;;5111958;28;20071;-87
2022/08/19 07:01:00;;;;;;;36.58;27.58;;;18.80;99.90;;;;;;5131129;28;20114;-86
2022/08/19 07:03:55;;;;;;;37.45;29.42;;;18.90;99.90;;;;;;5117966;28;20028;-87
2022/08/19 07:06:45;;;;;;;42.00;29.58;;;18.80;99.90;;;;;;5130831;28;20074;-85
2022/08/19 07:09:43;;;;;;;39.80;29.38;;;18.80;99.90;;;;;;5110806;28;20378;-87
2022/08/19 07:12:47;;;;;;;35.67;28.40;;;18.80;99.90;;;;;;5114590;27;20039;-89
2022/08/19 07:15:37;;;;;;;37.25;27.08;;;18.80;99.90;;;;;;5106758;28;20066;-89
2022/08/19 07:18:25;;;;;;;35.10;26.00;;;19.00;99.90;;;;;;5105914;28;20040;-88
2022/08/19 07:21:16;;;;;;;38.53;26.13;;;19.20;99.90;;;;;;5122161;27;20118;-88
2022/08/19 07:24:04;;;;;;;33.40;25.65;;;19.40;99.90;;;;;;5095093;27;20040;-89
2022/08/19 07:26:56;;;;;;;31.95;26.45;;;19.60;99.90;;;;;;5115205;27;20040;-88
2022/08/19 07:29:53;;;;;;;31.50;23.60;;;19.80;99.90;;;;;;5105745;28;20075;-88
2022/08/19 07:32:45;;;;;;;31.90;25.43;;;19.90;99.90;;;;;;5112382;27;20043;-87
2022/08/19 07:35:36;;;;;;;29.92;22.75;;;20.00;99.90;;;;;;5112691;27;20148;-88
2022/08/19 07:38:26;;;;;;;30.35;23.65;;;20.00;94.10;;;;;;5108070;28;20055;-88
2022/08/19 07:41:22;;;;;;;31.00;25.10;;;20.10;61.30;;;;;;5114476;28;20031;-86
2022/08/19 07:44:10;;;;;;;31.20;24.33;;;20.00;38.70;;;;;;5101792;28;20047;-88
2022/08/19 07:47:01;;;;;;;31.48;23.45;;;19.90;48.10;;;;;;5107062;28;20056;-86
2022/08/19 07:49:48;;;;;;;30.23;23.63;;;19.80;59.70;;;;;;5114765;28;20043;-86
2022/08/19 07:52:38;;;;;;;33.15;24.65;;;19.70;74.90;;;;;;5145046;28;20051;-86
2022/08/19 07:55:28;;;;;;;30.92;25.15;;;19.60;71.10;;;;;;5123635;28;20101;-88
2022/08/19 07:58:32;;;;;;;30.40;24.30;;;19.60;97.70;;;;;;5123052;28;20067;-89
2022/08/19 08:01:25;;;;;;;32.65;25.17;;;19.50;94.40;;;;;;5123371;28;20043;-86
2022/08/19 08:10:32;;;;;;;30.08;24.63;;;19.40;99.90;;;;;;5125539;28;20043;-86
2022/08/19 08:13:20;;;;;;;31.95;24.90;;;19.30;99.90;;;;;;5132267;28;20027;-86
2022/08/19 08:16:07;;;;;;;30.95;24.73;;;19.20;99.90;;;;;;5110804;28;20037;-87
2022/08/19 08:18:56;;;;;;;37.53;25.02;;;19.20;99.90;;;;;;5127805;28;20065;-88
2022/08/19 08:21:44;;;;;;;32.78;24.58;;;19.10;99.90;;;;;;5107094;28;20505;-88
2022/08/19 08:24:31;;;;;;;35.38;27.33;;;19.00;99.90;;;;;;5120827;27;20062;-88
2022/08/19 08:27:21;;;;;;;37.05;28.27;;;19.00;99.90;;;;;;5127010;27;20400;-88
2022/08/19 08:30:21;;;;;;;33.05;25.52;;;18.90;99.90;;;;;;5113283;27;20043;-90
2022/08/19 08:33:09;;;;;;;36.40;25.58;;;18.90;99.90;;;;;;5106910;28;20043;-89
2022/08/19 08:35:56;;;;;;;29.65;24.13;;;18.80;99.90;;;;;;5115958;27;20089;-90
2022/08/19 08:38:47;;;;;;;31.92;24.77;;;18.90;99.90;;;;;;5111073;28;20040;-88
2022/08/19 08:41:56;;;;;;;33.72;25.23;;;18.90;99.90;;;;;;5104239;28;20046;-90
2022/08/19 08:45:04;;;;;;;31.23;23.00;;;19.00;99.90;;;;;;5115757;28;20052;-87
2022/08/19 08:47:55;;;;;;;31.13;23.52;;;19.10;99.90;;;;;;5106994;27;20048;-87
2022/08/19 08:50:52;;;;;;;31.00;23.25;;;19.20;99.90;;;;;;5107756;28;20048;-86
2022/08/19 08:53:42;;;;;;;32.58;24.73;;;19.20;99.90;;;;;;5102654;28;20051;-86
2022/08/19 08:56:30;;;;;;;34.65;25.95;;;19.20;99.90;;;;;;5115735;27;20135;-88
2022/08/19 08:59:27;;;;;;;40.72;27.40;;;19.10;99.90;;;;;;5120703;27;20438;-88
2022/08/19 09:02:15;;;;;;;42.30;29.67;;;18.90;99.90;;;;;;5117513;27;20092;-86
2022/08/19 09:05:05;;;;;;;35.53;30.00;;;18.80;1.00;;;;;;5112451;28;20396;-86
2022/08/19 09:07:59;;;;;;;36.47;29.77;;;18.70;99.90;;;;;;5116411;27;20047;-87
2022/08/19 09:10:53;;;;;;;37.97;28.17;;;18.60;99.90;;;;;;5105660;28;20127;-88
2022/08/19 09:13:49;;;;;;;40.70;30.75;;;18.70;99.90;;;;;;5110743;28;20134;-87
2022/08/19 09:16:40;;;;;;;40.78;30.40;;;18.70;99.90;;;;;;5114767;28;20051;-86
2022/08/19 09:19:27;;;;;;;34.63;27.90;;;18.70;87.20;;;;;;5115031;28;20044;-88
2022/08/19 09:22:15;;;;;;;33.80;27.13;;;18.80;99.90;;;;;;5118038;27;20043;-88
2022/08/19 09:25:19;;;;;;;31.25;26.23;;;18.80;99.90;;;;;;5112267;27;20051;-87
2022/08/19 09:28:16;;;;;;;31.02;25.77;;;18.90;18.60;;;;;;5106882;27;20031;-88
2022/08/19 09:31:16;;;;;;;37.72;27.55;;;19.10;99.90;;;;;;5109311;27;20067;-85
2022/08/19 09:34:05;;;;;;;32.75;26.17;;;19.10;99.90;;;;;;5118836;27;20078;-85
2022/08/19 09:36:54;;;;;;;38.35;26.90;;;19.10;99.90;;;;;;5096239;28;20048;-85
2022/08/19 09:39:42;;;;;;;32.53;26.88;;;19.10;1.00;;;;;;5102422;28;20402;-86
2022/08/19 09:42:29;;;;;;;35.90;26.23;;;19.10;1.00;;;;;;5111630;27;20067;-85
2022/08/19 09:45:21;;;;;;;40.00;27.17;;;19.00;1.00;;;;;;5114459;28;20039;-84
2022/08/19 09:48:11;;;;;;;36.45;27.13;;;18.90;99.90;;;;;;5116265;27;20293;-88
2022/08/19 09:51:16;;;;;;;37.28;26.08;;;18.90;1.00;;;;;;5113812;27;20048;-87
2022/08/19 09:54:05;;;;;;;32.53;26.60;;;18.90;99.90;;;;;;5109978;27;20043;-88
2022/08/19 09:57:00;;;;;;;33.28;24.65;;;18.90;1.00;;;;;;5114330;27;20047;-86
2022/08/19 09:59:50;;;;;;;29.25;23.75;;;18.90;1.00;;;;;;5111652;28;20391;-87
2022/08/19 10:02:37;;;;;;;30.42;24.50;;;19.00;99.90;;;;;;5107923;27;20058;-87
2022/08/19 10:08:36;;;;;;;31.42;23.50;;;19.10;99.90;;;;;;5111002;27;20039;-88
2022/08/19 10:11:27;;;;;;;30.20;23.98;;;19.20;99.90;;;;;;5113266;27;20418;-89
2022/08/19 10:14:26;;;;;;;27.80;22.33;;;19.30;1.00;;;;;;5115446;27;20046;-89
2022/08/19 10:17:13;;;;;;;29.33;22.67;;;19.30;99.90;;;;;;5122779;27;20100;-89
2022/08/19 10:20:07;;;;;;;32.30;21.80;;;19.30;99.90;;;;;;5115154;27;20050;-86
2022/08/19 10:22:59;;;;;;;32.88;22.15;;;19.40;99.90;;;;;;5111910;27;20055;-86
2022/08/19 10:25:49;;;;;;;27.30;20.42;;;19.50;99.90;;;;;;5110393;27;20052;-85
2022/08/19 10:28:42;;;;;;;28.35;20.08;;;19.60;99.90;;;;;;5110734;27;20385;-87
2022/08/19 10:31:34;;;;;;;31.20;20.85;;;19.60;99.90;;;;;;5129227;27;20071;-89
2022/08/19 10:34:41;;;;;;;26.65;19.85;;;19.70;99.90;;;;;;5113942;27;20048;-86
2022/08/19 10:37:39;;;;;;;22.85;18.52;;;19.80;94.50;;;;;;5112590;27;20054;-88
2022/08/19 10:40:44;;;;;;;22.77;18.65;;;20.00;1.00;;;;;;5109679;28;20043;-86
2022/08/19 10:43:34;;;;;;;22.88;17.25;;;20.10;1.00;;;;;;5102144;28;20055;-87
2022/08/19 10:46:23;;;;;;;17.52;15.65;;;20.20;1.00;;;;;;5110194;27;20043;-87
2022/08/19 10:49:11;;;;;;;21.20;15.77;;;20.30;99.90;;;;;;5116979;27;20070;-88
2022/08/19 10:58:23;;;;;;;16.20;13.15;;;20.40;99.90;;;;;;5116818;27;20091;-86
2022/08/19 11:01:12;;;;;;;14.63;11.75;;;20.50;99.90;;;;;;5091867;28;20047;-89
2022/08/19 11:04:02;;;;;;;17.98;11.95;;;20.50;99.90;;;;;;5112246;27;20039;-87
2022/08/19 11:06:49;;;;;;;14.70;12.20;;;20.60;99.90;;;;;;5121126;27;20038;-89
2022/08/19 11:09:40;;;;;;;16.55;12.25;;;20.70;99.90;;;;;;5103202;27;20066;-87
2022/08/19 11:12:27;;;;;;;20.17;10.45;;;20.80;99.90;;;;;;5112238;28;20039;-88
2022/08/19 11:15:15;;;;;;;18.10;11.60;;;20.90;16.00;;;;;;5113122;28;20058;-87
2022/08/19 11:18:02;;;;;;;18.33;11.48;;;21.20;1.00;;;;;;5106920;28;20062;-85
2022/08/19 11:20:50;;;;;;;12.38;10.77;;;21.30;1.00;;;;;;5094616;28;20482;-86
2022/08/19 11:23:38;;;;;;;13.93;11.05;;;21.40;1.00;;;;;;5097595;28;20043;-89
2022/08/19 11:26:27;;;;;;;14.63;11.75;;;21.60;1.00;;;;;;5115586;27;20048;-87
2022/08/19 11:29:15;;;;;;;12.02;10.73;;;21.60;1.00;;;;;;5106840;27;20363;-86
2022/08/19 11:32:09;;;;;;;15.70;11.25;;;21.70;1.00;;;;;;5107927;27;20504;-87
2022/08/19 11:34:56;;;;;;;17.40;11.73;;;21.70;1.00;;;;;;5117202;27;20105;-86
2022/08/19 11:37:43;;;;;;;14.20;11.35;;;21.70;99.90;;;;;;5117727;27;20899;-87
2022/08/19 11:40:31;;;;;;;12.98;11.07;;;21.60;99.90;;;;;;5100405;28;20047;-86
2022/08/19 11:43:20;;;;;;;12.10;10.88;;;21.60;99.90;;;;;;5107267;28;20453;-87
2022/08/19 11:46:12;;;;;;;16.38;10.07;;;21.60;99.90;;;;;;5113303;28;20113;-86
2022/08/19 11:49:01;;;;;;;13.90;10.38;;;21.60;99.90;;;;;;5116700;28;20054;-87
2022/08/19 11:51:50;;;;;;;13.07;10.57;;;21.60;99.90;;;;;;5095652;28;20063;-86
2022/08/19 11:54:39;;;;;;;11.80;10.18;;;21.60;99.90;;;;;;5095629;28;20052;-89
2022/08/19 11:57:27;;;;;;;13.95;12.05;;;21.70;99.90;;;;;;5101910;28;20044;-87
2022/08/19 12:00:14;;;;;;;14.05;11.00;;;21.70;99.90;;;;;;5113641;28;20101;-87
2022/08/19 12:03:02;;;;;;;13.68;10.85;;;21.70;99.90;;;;;;5099902;28;20044;-87
2022/08/19 12:05:51;;;;;;;12.52;10.65;;;21.70;99.90;;;;;;5104154;28;20356;-87
2022/08/19 12:08:38;;;;;;;12.02;10.27;;;21.60;99.90;;;;;;5114595;28;20093;-87
2022/08/19 12:11:28;;;;;;;16.83;11.40;;;21.60;99.90;;;;;;5117555;28;20059;-85
2022/08/19 12:14:23;;;;;;;13.70;9.70;;;21.70;99.90;;;;;;5104250;27;20047;-86
2022/08/19 12:17:13;;;;;;;12.25;9.50;;;21.80;99.90;;;;;;5117186;27;20063;-87
2022/08/19 12:20:03;;;;;;;19.63;9.65;;;21.80;99.90;;;;;;5117210;27;20043;-87
2022/08/19 12:22:53;;;;;;;13.98;9.55;;;21.80;99.90;;;;;;5128608;27;20335;-87
2022/08/19 12:25:51;;;;;;;12.20;9.80;;;21.80;99.90;;;;;;5111211;27;20476;-87
2022/08/19 12:28:39;;;;;;;12.13;9.05;;;21.90;99.90;;;;;;5113094;27;20074;-87
2022/08/19 12:31:32;;;;;;;13.35;8.98;;;21.80;99.90;;;;;;5113556;27;20043;-88
2022/08/19 12:34:19;;;;;;;13.95;8.73;;;21.90;99.90;;;;;;5096048;28;20052;-88
2022/08/19 12:37:12;;;;;;;13.07;8.60;;;22.10;99.90;;;;;;5109644;28;20055;-87
2022/08/19 12:40:00;;;;;;;11.93;8.77;;;22.50;99.90;;;;;;5108825;28;20055;-87
2022/08/19 12:42:49;;;;;;;9.68;8.38;;;22.80;99.90;;;;;;5114607;28;20075;-87
2022/08/19 12:45:37;;;;;;;9.55;7.55;;;23.00;99.90;;;;;;5115303;28;20056;-86
2022/08/19 12:48:29;;;;;;;9.18;7.65;;;23.20;99.90;;;;;;5093407;28;20114;-88
2022/08/19 12:51:21;;;;;;;10.75;8.15;;;23.30;99.90;;;;;;5111137;27;20044;-86
2022/08/19 12:54:08;;;;;;;9.02;7.32;;;23.20;99.90;;;;;;5097740;28;20105;-87
2022/08/19 12:56:55;;;;;;;8.68;7.00;;;23.00;99.90;;;;;;5103555;28;20036;-87
2022/08/19 12:59:43;;;;;;;12.35;7.32;;;22.90;99.90;;;;;;5090314;28;20044;-88
2022/08/19 13:02:31;;;;;;;12.27;7.47;;;22.70;99.90;;;;;;5111944;28;20105;-87
2022/08/19 13:05:33;;;;;;;9.77;7.35;;;22.50;99.90;;;;;;5109235;27;20358;-86
2022/08/19 13:08:22;;;;;;;7.70;6.78;;;22.40;99.90;;;;;;5108349;27;20039;-85
2022/08/19 13:11:17;;;;;;;10.90;6.65;;;22.40;99.90;;;;;;5122620;27;20126;-87
2022/08/19 13:14:07;;;;;;;8.95;6.72;;;22.30;99.90;;;;;;5099566;28;20047;-85
2022/08/19 13:16:54;;;;;;;8.73;7.10;;;22.40;99.90;;;;;;5104218;27;20047;-86
2022/08/19 13:19:42;;;;;;;8.57;6.38;;;22.40;99.90;;;;;;5118139;28;20059;-87
2022/08/19 13:22:29;;;;;;;7.78;7.00;;;22.50;99.90;;;;;;5125894;27;20036;-87
2022/08/19 13:25:19;;;;;;;8.55;6.70;;;22.60;99.90;;;;;;5109616;27;20377;-86
2022/08/19 13:28:06;;;;;;;7.18;6.40;;;22.50;99.40;;;;;;5103216;28;20039;-87
2022/08/19 13:33:59;;;;;;;7.88;6.45;;;22.60;95.40;;;;;;5109110;28;20044;-85
2022/08/19 13:36:46;;;;;;;8.00;6.90;;;22.70;90.30;;;;;;5132620;27;20066;-85
2022/08/19 13:39:36;;;;;;;9.15;8.20;;;22.80;94.50;;;;;;5131269;27;20036;-83
2022/08/19 13:42:23;;;;;;;23.20;20.52;;;22.80;99.90;;;;;;5114651;28;20040;-87
2022/08/19 13:45:14;;;;;;;23.33;20.88;;;22.20;99.90;;;;;;5116911;28;20052;-86
2022/08/19 13:48:08;;;;;;;22.05;19.55;;;21.90;99.90;;;;;;5117148;28;20036;-86
2022/08/19 13:50:58;;;;;;;22.73;20.02;;;21.70;99.90;;;;;;5108993;28;20036;-87
2022/08/19 13:53:48;;;;;;;26.05;20.70;;;21.60;99.90;;;;;;5124630;28;20054;-86
2022/08/19 13:56:43;;;;;;;21.92;19.25;;;21.50;99.90;;;;;;5103387;27;20442;-88
2022/08/19 13:59:30;;;;;;;21.77;19.50;;;21.40;99.90;;;;;;5121837;27;20043;-86
2022/08/19 14:02:18;;;;;;;20.88;17.58;;;21.20;99.90;;;;;;5114241;27;20036;-86
2022/08/19 14:05:08;;;;;;;23.17;19.70;;;21.10;1.00;;;;;;5115414;27;20464;-86
2022/08/19 14:07:56;;;;;;;23.85;19.80;;;21.50;1.00;;;;;;5100229;28;20043;-86
2022/08/19 14:10:46;;;;;;;25.05;19.45;;;21.70;1.00;;;;;;5102519;27;20044;-87
2022/08/19 14:13:33;;;;;;;20.52;18.10;;;21.80;1.00;;;;;;5100475;28;20055;-87
2022/08/19 14:16:24;;;;;;;19.75;17.02;;;21.80;1.00;;;;;;5115424;27;20047;-87
2022/08/19 14:19:11;;;;;;;22.13;17.88;;;21.80;99.90;;;;;;5112716;27;20130;-85
2022/08/19 14:21:59;;;;;;;22.40;19.08;;;21.70;99.90;;;;;;5103022;28;20051;-85
2022/08/19 14:24:47;;;;;;;21.20;18.52;;;21.60;1.00;;;;;;5115238;28;20354;-84
2022/08/19 14:27:39;;;;;;;22.20;19.55;;;21.70;1.00;;;;;;5116002;27;20526;-83
2022/08/19 14:30:34;;;;;;;25.85;21.63;;;22.20;1.00;;;;;;5114023;27;20047;-86
2022/08/19 14:33:23;;;;;;;23.85;21.30;;;22.20;99.90;;;;;;5114873;27;20040;-84
2022/08/19 14:36:17;;;;;;;22.90;20.45;;;22.00;99.90;;;;;;5115733;27;20094;-86
2022/08/19 14:39:07;;;;;;;22.67;19.75;;;21.80;99.90;;;;;;5122713;27;20063;-88
2022/08/19 14:41:54;;;;;;;21.58;19.23;;;21.60;99.90;;;;;;5147787;27;20050;-85
2022/08/19 14:44:42;;;;;;;22.58;19.90;;;21.70;99.90;;;;;;5123287;28;20043;-85
2022/08/19 14:48:00;;;;;;;22.77;19.95;;;21.50;1.00;;;;;;5126873;27;20036;-85
2022/08/19 14:50:47;;;;;;;20.92;17.95;;;21.50;1.00;;;;;;5116615;28;20043;-87
2022/08/19 14:53:35;;;;;;;23.60;18.40;;;21.40;1.00;;;;;;5113525;27;20058;-87
2022/08/19 14:56:27;;;;;;;18.90;16.90;;;21.60;1.00;;;;;;5102293;28;20055;-88